N723GW
Topic Author
Posts: 229
Joined: Fri Nov 04, 2005 2:17 pm

ORD Diversions 1/2/06

Tue Jan 03, 2006 1:16 am

Thread to post them here! Looks like they are a bout to get hit pretty hard soon radar shows big red blobs heading their way,
KORD 021532Z 07011KT 1 1/4SM R14R/6000VP6000FT BR OVC004 06/04 A2957
2006/01/02 15:25 Ammendment
KORD 021525Z 021512 08010G24KT 2SM BR OVC004
FM0000 04014KT 3SM -RA OVC004
TEMPO 0206 2SM BR OVC007
FM0600 03012KT 4SM -DZ BR OVC007
The dude abides
 
N723GW
Topic Author
Posts: 229
Joined: Fri Nov 04, 2005 2:17 pm

RE: ORD Diversions 1/2/06

Tue Jan 03, 2006 3:32 am

So far in GRR;

UA1158 MSP-ORD B733
UA479 PVD-ORD B735
UA8191 LGA-ORD B752
The dude abides

Who is online